sensor_id;sensor_type;location;lat;lon;timestamp;P1;durP1;ratioP1;P2;durP2;ratioP2
47617;SDS011;33336;36.728;-4.414;2023-08-07T00:01:56;3.40;;;1.20;;
47617;SDS011;33336;36.728;-4.414;2023-08-07T00:06:58;4.03;;;1.70;;
47617;SDS011;33336;36.728;-4.414;2023-08-07T00:12:03;7.90;;;1.55;;
47617;SDS011;33336;36.728;-4.414;2023-08-07T00:17:06;4.38;;;1.73;;
47617;SDS011;33336;36.728;-4.414;2023-08-07T00:22:10;2.85;;;1.40;;
47617;SDS011;33336;36.728;-4.414;2023-08-07T00:27:14;2.33;;;1.40;;
47617;SDS011;33336;36.728;-4.414;2023-08-07T00:32:18;3.25;;;1.35;;
47617;SDS011;33336;36.728;-4.414;2023-08-07T00:37:20;4.68;;;1.65;;
47617;SDS011;33336;36.728;-4.414;2023-08-07T00:42:25;4.00;;;1.58;;
47617;SDS011;33336;36.728;-4.414;2023-08-07T00:47:28;3.25;;;1.27;;
47617;SDS011;33336;36.728;-4.414;2023-08-07T00:52:32;4.95;;;1.75;;
47617;SDS011;33336;36.728;-4.414;2023-08-07T00:57:36;7.10;;;1.80;;
47617;SDS011;33336;36.728;-4.414;2023-08-07T01:02:39;2.05;;;1.25;;
47617;SDS011;33336;36.728;-4.414;2023-08-07T01:07:42;3.97;;;1.58;;
47617;SDS011;33336;36.728;-4.414;2023-08-07T01:12:48;4.20;;;1.65;;
47617;SDS011;33336;36.728;-4.414;2023-08-07T01:17:59;3.65;;;1.48;;
47617;SDS011;33336;36.728;-4.414;2023-08-07T01:23:07;2.53;;;1.35;;
47617;SDS011;33336;36.728;-4.414;2023-08-07T01:28:11;5.00;;;1.98;;
47617;SDS011;33336;36.728;-4.414;2023-08-07T01:33:20;2.38;;;1.15;;
47617;SDS011;33336;36.728;-4.414;2023-08-07T01:38:32;3.17;;;1.15;;
47617;SDS011;33336;36.728;-4.414;2023-08-07T01:43:37;3.00;;;1.27;;
47617;SDS011;33336;36.728;-4.414;2023-08-07T01:48:39;4.05;;;1.65;;
47617;SDS011;33336;36.728;-4.414;2023-08-07T01:53:50;4.93;;;1.55;;
47617;SDS011;33336;36.728;-4.414;2023-08-07T01:58:53;2.85;;;1.48;;
47617;SDS011;33336;36.728;-4.414;2023-08-07T02:03:56;2.38;;;1.10;;
47617;SDS011;33336;36.728;-4.414;2023-08-07T02:09:00;2.95;;;1.30;;
47617;SDS011;33336;36.728;-4.414;2023-08-07T02:14:03;3.47;;;1.73;;
47617;SDS011;33336;36.728;-4.414;2023-08-07T02:19:06;4.57;;;1.48;;
47617;SDS011;33336;36.728;-4.414;2023-08-07T02:24:11;2.80;;;1.30;;
47617;SDS011;33336;36.728;-4.414;2023-08-07T02:29:14;4.22;;;1.38;;
47617;SDS011;33336;36.728;-4.414;2023-08-07T02:34:17;6.65;;;1.25;;
47617;SDS011;33336;36.728;-4.414;2023-08-07T02:39:22;2.05;;;1.30;;
47617;SDS011;33336;36.728;-4.414;2023-08-07T02:44:25;3.38;;;1.77;;
47617;SDS011;33336;36.728;-4.414;2023-08-07T02:49:28;1.77;;;1.00;;
47617;SDS011;33336;36.728;-4.414;2023-08-07T02:54:33;4.57;;;1.20;;
47617;SDS011;33336;36.728;-4.414;2023-08-07T02:59:36;3.75;;;1.40;;
47617;SDS011;33336;36.728;-4.414;2023-08-07T03:04:39;3.67;;;1.75;;
47617;SDS011;33336;36.728;-4.414;2023-08-07T03:09:46;2.65;;;1.50;;
47617;SDS011;33336;36.728;-4.414;2023-08-07T03:14:50;4.40;;;1.40;;
47617;SDS011;33336;36.728;-4.414;2023-08-07T03:19:52;5.03;;;1.40;;
47617;SDS011;33336;36.728;-4.414;2023-08-07T03:24:57;3.50;;;1.48;;
47617;SDS011;33336;36.728;-4.414;2023-08-07T03:29:59;7.82;;;1.60;;
47617;SDS011;33336;36.728;-4.414;2023-08-07T03:35:02;2.17;;;1.40;;
47617;SDS011;33336;36.728;-4.414;2023-08-07T03:40:07;5.43;;;1.23;;
47617;SDS011;33336;36.728;-4.414;2023-08-07T03:45:11;2.97;;;1.33;;
47617;SDS011;33336;36.728;-4.414;2023-08-07T03:50:15;5.35;;;1.25;;
47617;SDS011;33336;36.728;-4.414;2023-08-07T03:55:20;8.88;;;1.88;;
47617;SDS011;33336;36.728;-4.414;2023-08-07T04:00:23;5.10;;;1.25;;
47617;SDS011;33336;36.728;-4.414;2023-08-07T04:05:26;2.80;;;1.60;;
47617;SDS011;33336;36.728;-4.414;2023-08-07T04:10:30;7.05;;;1.63;;
47617;SDS011;33336;36.728;-4.414;2023-08-07T04:15:33;3.50;;;1.05;;
47617;SDS011;33336;36.728;-4.414;2023-08-07T04:20:36;5.18;;;1.27;;
47617;SDS011;33336;36.728;-4.414;2023-08-07T04:25:41;3.40;;;1.70;;
47617;SDS011;33336;36.728;-4.414;2023-08-07T04:30:44;6.05;;;1.50;;
47617;SDS011;33336;36.728;-4.414;2023-08-07T04:35:47;4.95;;;1.95;;
47617;SDS011;33336;36.728;-4.414;2023-08-07T04:40:52;1.27;;;0.98;;
47617;SDS011;33336;36.728;-4.414;2023-08-07T04:45:55;7.50;;;1.55;;
47617;SDS011;33336;36.728;-4.414;2023-08-07T04:50:58;4.65;;;1.50;;
47617;SDS011;33336;36.728;-4.414;2023-08-07T04:56:03;4.57;;;1.75;;
47617;SDS011;33336;36.728;-4.414;2023-08-07T05:01:06;5.65;;;1.05;;
47617;SDS011;33336;36.728;-4.414;2023-08-07T05:06:09;4.53;;;1.90;;
47617;SDS011;33336;36.728;-4.414;2023-08-07T05:11:14;3.97;;;1.33;;
47617;SDS011;33336;36.728;-4.414;2023-08-07T05:16:17;8.05;;;1.92;;
47617;SDS011;33336;36.728;-4.414;2023-08-07T05:21:20;5.05;;;1.90;;
47617;SDS011;33336;36.728;-4.414;2023-08-07T05:26:25;5.20;;;1.35;;
47617;SDS011;33336;36.728;-4.414;2023-08-07T05:31:29;5.13;;;1.67;;
47617;SDS011;33336;36.728;-4.414;2023-08-07T05:36:32;12.50;;;2.05;;
47617;SDS011;33336;36.728;-4.414;2023-08-07T05:41:37;7.78;;;1.17;;
47617;SDS011;33336;36.728;-4.414;2023-08-07T05:46:40;6.07;;;1.65;;
47617;SDS011;33336;36.728;-4.414;2023-08-07T05:51:43;8.25;;;2.08;;
47617;SDS011;33336;36.728;-4.414;2023-08-07T05:56:49;4.80;;;1.17;;
47617;SDS011;33336;36.728;-4.414;2023-08-07T06:01:52;4.30;;;1.80;;
47617;SDS011;33336;36.728;-4.414;2023-08-07T06:06:56;4.15;;;1.52;;
47617;SDS011;33336;36.728;-4.414;2023-08-07T06:12:00;8.98;;;1.73;;
47617;SDS011;33336;36.728;-4.414;2023-08-07T06:17:04;5.00;;;1.20;;
47617;SDS011;33336;36.728;-4.414;2023-08-07T06:22:07;10.02;;;1.70;;
47617;SDS011;33336;36.728;-4.414;2023-08-07T06:27:11;5.50;;;2.00;;
47617;SDS011;33336;36.728;-4.414;2023-08-07T06:32:14;4.78;;;1.63;;
47617;SDS011;33336;36.728;-4.414;2023-08-07T06:37:18;6.30;;;3.33;;
47617;SDS011;33336;36.728;-4.414;2023-08-07T06:42:22;5.40;;;2.20;;
47617;SDS011;33336;36.728;-4.414;2023-08-07T06:47:25;5.68;;;1.90;;
47617;SDS011;33336;36.728;-4.414;2023-08-07T06:52:28;10.57;;;1.80;;
47617;SDS011;33336;36.728;-4.414;2023-08-07T06:57:33;9.75;;;2.20;;
47617;SDS011;33336;36.728;-4.414;2023-08-07T07:02:36;4.53;;;1.80;;
47617;SDS011;33336;36.728;-4.414;2023-08-07T07:07:39;11.45;;;2.33;;
47617;SDS011;33336;36.728;-4.414;2023-08-07T07:12:44;8.45;;;2.20;;
47617;SDS011;33336;36.728;-4.414;2023-08-07T07:17:46;10.95;;;2.20;;
47617;SDS011;33336;36.728;-4.414;2023-08-07T07:22:49;8.07;;;2.58;;
47617;SDS011;33336;36.728;-4.414;2023-08-07T07:27:53;9.32;;;2.58;;
47617;SDS011;33336;36.728;-4.414;2023-08-07T07:32:56;7.88;;;1.90;;
47617;SDS011;33336;36.728;-4.414;2023-08-07T07:37:59;5.90;;;2.22;;
47617;SDS011;33336;36.728;-4.414;2023-08-07T07:43:04;9.82;;;1.77;;
47617;SDS011;33336;36.728;-4.414;2023-08-07T07:48:07;8.98;;;1.83;;
47617;SDS011;33336;36.728;-4.414;2023-08-07T07:53:10;11.00;;;2.28;;
47617;SDS011;33336;36.728;-4.414;2023-08-07T07:58:14;8.30;;;2.08;;
47617;SDS011;33336;36.728;-4.414;2023-08-07T08:03:17;13.02;;;2.47;;
47617;SDS011;33336;36.728;-4.414;2023-08-07T08:08:21;7.63;;;1.88;;
47617;SDS011;33336;36.728;-4.414;2023-08-07T08:13:26;7.28;;;1.77;;
47617;SDS011;33336;36.728;-4.414;2023-08-07T08:18:29;6.50;;;1.20;;
47617;SDS011;33336;36.728;-4.414;2023-08-07T08:23:32;6.63;;;1.90;;
47617;SDS011;33336;36.728;-4.414;2023-08-07T08:28:37;4.20;;;1.60;;
47617;SDS011;33336;36.728;-4.414;2023-08-07T08:33:40;11.18;;;2.33;;
47617;SDS011;33336;36.728;-4.414;2023-08-07T08:38:43;3.60;;;1.55;;
47617;SDS011;33336;36.728;-4.414;2023-08-07T08:43:51;6.43;;;2.53;;
47617;SDS011;33336;36.728;-4.414;2023-08-07T08:48:57;6.70;;;1.70;;
47617;SDS011;33336;36.728;-4.414;2023-08-07T08:54:00;7.85;;;1.98;;
47617;SDS011;33336;36.728;-4.414;2023-08-07T08:59:06;7.68;;;1.80;;
47617;SDS011;33336;36.728;-4.414;2023-08-07T09:04:09;3.85;;;1.60;;
47617;SDS011;33336;36.728;-4.414;2023-08-07T09:09:13;10.57;;;2.40;;
47617;SDS011;33336;36.728;-4.414;2023-08-07T09:14:22;12.10;;;2.25;;
47617;SDS011;33336;36.728;-4.414;2023-08-07T09:19:28;14.15;;;1.65;;
47617;SDS011;33336;36.728;-4.414;2023-08-07T09:24:32;9.65;;;1.67;;
47617;SDS011;33336;36.728;-4.414;2023-08-07T09:29:37;7.60;;;2.72;;
47617;SDS011;33336;36.728;-4.414;2023-08-07T09:34:42;2.53;;;1.38;;
47617;SDS011;33336;36.728;-4.414;2023-08-07T09:39:45;6.80;;;1.63;;
47617;SDS011;33336;36.728;-4.414;2023-08-07T09:44:50;5.30;;;1.15;;
47617;SDS011;33336;36.728;-4.414;2023-08-07T09:49:54;7.22;;;1.83;;
47617;SDS011;33336;36.728;-4.414;2023-08-07T09:54:57;8.50;;;1.90;;
47617;SDS011;33336;36.728;-4.414;2023-08-07T10:00:02;8.50;;;1.77;;
47617;SDS011;33336;36.728;-4.414;2023-08-07T10:05:12;7.00;;;1.90;;
47617;SDS011;33336;36.728;-4.414;2023-08-07T10:10:16;5.90;;;2.05;;
47617;SDS011;33336;36.728;-4.414;2023-08-07T10:15:21;4.97;;;1.25;;
47617;SDS011;33336;36.728;-4.414;2023-08-07T10:20:25;3.95;;;2.17;;
47617;SDS011;33336;36.728;-4.414;2023-08-07T10:25:29;5.47;;;1.58;;
47617;SDS011;33336;36.728;-4.414;2023-08-07T10:30:35;7.20;;;1.77;;
47617;SDS011;33336;36.728;-4.414;2023-08-07T10:35:44;7.73;;;1.50;;
47617;SDS011;33336;36.728;-4.414;2023-08-07T10:40:58;10.00;;;1.67;;
47617;SDS011;33336;36.728;-4.414;2023-08-07T10:46:04;8.00;;;2.00;;
47617;SDS011;33336;36.728;-4.414;2023-08-07T10:51:08;6.32;;;1.65;;
47617;SDS011;33336;36.728;-4.414;2023-08-07T10:56:15;8.07;;;1.95;;
47617;SDS011;33336;36.728;-4.414;2023-08-07T11:01:24;7.53;;;1.88;;
47617;SDS011;33336;36.728;-4.414;2023-08-07T11:06:42;4.75;;;1.65;;
47617;SDS011;33336;36.728;-4.414;2023-08-07T11:11:48;13.07;;;1.98;;
47617;SDS011;33336;36.728;-4.414;2023-08-07T11:16:53;5.07;;;1.80;;
47617;SDS011;33336;36.728;-4.414;2023-08-07T11:21:55;4.50;;;1.75;;
47617;SDS011;33336;36.728;-4.414;2023-08-07T11:26:59;5.47;;;1.92;;
47617;SDS011;33336;36.728;-4.414;2023-08-07T11:32:04;12.00;;;2.30;;
47617;SDS011;33336;36.728;-4.414;2023-08-07T11:37:07;6.20;;;1.67;;
47617;SDS011;33336;36.728;-4.414;2023-08-07T11:42:18;8.43;;;1.73;;
47617;SDS011;33336;36.728;-4.414;2023-08-07T11:47:26;4.18;;;1.35;;
47617;SDS011;33336;36.728;-4.414;2023-08-07T11:52:30;9.63;;;1.58;;
47617;SDS011;33336;36.728;-4.414;2023-08-07T11:57:33;10.73;;;1.73;;
47617;SDS011;33336;36.728;-4.414;2023-08-07T12:02:38;7.40;;;1.42;;
47617;SDS011;33336;36.728;-4.414;2023-08-07T12:07:44;7.15;;;1.45;;
47617;SDS011;33336;36.728;-4.414;2023-08-07T12:12:48;4.40;;;1.30;;
47617;SDS011;33336;36.728;-4.414;2023-08-07T12:18:01;8.07;;;1.50;;
47617;SDS011;33336;36.728;-4.414;2023-08-07T12:23:04;5.63;;;1.63;;
47617;SDS011;33336;36.728;-4.414;2023-08-07T12:28:12;7.70;;;2.13;;
47617;SDS011;33336;36.728;-4.414;2023-08-07T12:33:19;5.88;;;1.90;;
47617;SDS011;33336;36.728;-4.414;2023-08-07T12:38:22;6.85;;;2.10;;
47617;SDS011;33336;36.728;-4.414;2023-08-07T12:43:25;6.63;;;1.63;;
47617;SDS011;33336;36.728;-4.414;2023-08-07T12:48:29;7.57;;;1.88;;
47617;SDS011;33336;36.728;-4.414;2023-08-07T12:53:32;3.50;;;1.30;;
47617;SDS011;33336;36.728;-4.414;2023-08-07T12:58:35;6.43;;;2.03;;
47617;SDS011;33336;36.728;-4.414;2023-08-07T13:03:40;4.20;;;1.45;;
47617;SDS011;33336;36.728;-4.414;2023-08-07T13:08:42;5.30;;;1.58;;
47617;SDS011;33336;36.728;-4.414;2023-08-07T13:13:46;2.60;;;1.15;;
47617;SDS011;33336;36.728;-4.414;2023-08-07T13:18:51;5.60;;;1.67;;
47617;SDS011;33336;36.728;-4.414;2023-08-07T13:23:54;4.88;;;1.35;;
47617;SDS011;33336;36.728;-4.414;2023-08-07T13:28:57;5.63;;;1.50;;
47617;SDS011;33336;36.728;-4.414;2023-08-07T13:34:02;5.78;;;1.60;;
47617;SDS011;33336;36.728;-4.414;2023-08-07T13:39:08;4.07;;;1.42;;
47617;SDS011;33336;36.728;-4.414;2023-08-07T13:44:11;6.13;;;1.50;;
47617;SDS011;33336;36.728;-4.414;2023-08-07T13:49:16;4.70;;;1.52;;
47617;SDS011;33336;36.728;-4.414;2023-08-07T13:54:19;5.10;;;1.58;;
47617;SDS011;33336;36.728;-4.414;2023-08-07T13:59:22;2.92;;;1.60;;
47617;SDS011;33336;36.728;-4.414;2023-08-07T14:04:27;6.68;;;1.60;;
47617;SDS011;33336;36.728;-4.414;2023-08-07T14:09:29;4.93;;;1.30;;
47617;SDS011;33336;36.728;-4.414;2023-08-07T14:14:33;6.47;;;2.10;;
47617;SDS011;33336;36.728;-4.414;2023-08-07T14:19:37;6.30;;;1.58;;
47617;SDS011;33336;36.728;-4.414;2023-08-07T14:24:41;12.93;;;1.75;;
47617;SDS011;33336;36.728;-4.414;2023-08-07T14:29:44;5.85;;;1.73;;
47617;SDS011;33336;36.728;-4.414;2023-08-07T14:34:49;6.00;;;1.60;;
47617;SDS011;33336;36.728;-4.414;2023-08-07T14:39:52;4.23;;;1.40;;
47617;SDS011;33336;36.728;-4.414;2023-08-07T14:44:55;6.45;;;1.25;;
47617;SDS011;33336;36.728;-4.414;2023-08-07T14:50:00;9.57;;;1.38;;
47617;SDS011;33336;36.728;-4.414;2023-08-07T14:55:03;7.50;;;2.28;;
47617;SDS011;33336;36.728;-4.414;2023-08-07T15:00:07;6.32;;;1.25;;
47617;SDS011;33336;36.728;-4.414;2023-08-07T15:05:13;6.47;;;1.50;;
47617;SDS011;33336;36.728;-4.414;2023-08-07T15:10:16;6.40;;;1.90;;
47617;SDS011;33336;36.728;-4.414;2023-08-07T15:15:23;3.22;;;1.50;;
47617;SDS011;33336;36.728;-4.414;2023-08-07T15:20:27;3.40;;;1.20;;
47617;SDS011;33336;36.728;-4.414;2023-08-07T15:25:31;5.63;;;1.77;;
47617;SDS011;33336;36.728;-4.414;2023-08-07T15:30:34;5.43;;;1.45;;
47617;SDS011;33336;36.728;-4.414;2023-08-07T15:35:40;7.40;;;1.85;;
47617;SDS011;33336;36.728;-4.414;2023-08-07T15:40:42;3.08;;;1.38;;
47617;SDS011;33336;36.728;-4.414;2023-08-07T15:45:49;9.20;;;2.17;;
47617;SDS011;33336;36.728;-4.414;2023-08-07T15:50:54;7.55;;;1.98;;
47617;SDS011;33336;36.728;-4.414;2023-08-07T15:55:57;9.15;;;2.20;;
47617;SDS011;33336;36.728;-4.414;2023-08-07T16:01:00;9.13;;;2.20;;
47617;SDS011;33336;36.728;-4.414;2023-08-07T16:06:05;5.70;;;1.65;;
47617;SDS011;33336;36.728;-4.414;2023-08-07T16:11:07;9.18;;;2.20;;
47617;SDS011;33336;36.728;-4.414;2023-08-07T16:16:11;5.72;;;1.15;;
47617;SDS011;33336;36.728;-4.414;2023-08-07T16:21:16;6.45;;;2.10;;
47617;SDS011;33336;36.728;-4.414;2023-08-07T16:26:19;9.70;;;1.67;;
47617;SDS011;33336;36.728;-4.414;2023-08-07T16:31:22;8.75;;;2.10;;
47617;SDS011;33336;36.728;-4.414;2023-08-07T16:36:27;6.40;;;1.50;;
47617;SDS011;33336;36.728;-4.414;2023-08-07T16:41:29;10.63;;;2.08;;
47617;SDS011;33336;36.728;-4.414;2023-08-07T16:46:33;9.68;;;2.13;;
47617;SDS011;33336;36.728;-4.414;2023-08-07T16:51:37;10.13;;;2.90;;
47617;SDS011;33336;36.728;-4.414;2023-08-07T16:56:41;7.10;;;1.55;;
47617;SDS011;33336;36.728;-4.414;2023-08-07T17:01:44;9.80;;;2.45;;
47617;SDS011;33336;36.728;-4.414;2023-08-07T17:06:49;7.00;;;1.33;;
47617;SDS011;33336;36.728;-4.414;2023-08-07T17:11:51;7.53;;;1.55;;
47617;SDS011;33336;36.728;-4.414;2023-08-07T17:16:55;5.97;;;1.45;;
47617;SDS011;33336;36.728;-4.414;2023-08-07T17:22:00;5.05;;;1.48;;
47617;SDS011;33336;36.728;-4.414;2023-08-07T17:27:03;9.15;;;1.45;;
47617;SDS011;33336;36.728;-4.414;2023-08-07T17:32:07;4.83;;;1.80;;
47617;SDS011;33336;36.728;-4.414;2023-08-07T17:37:12;7.75;;;2.30;;
47617;SDS011;33336;36.728;-4.414;2023-08-07T17:42:15;8.80;;;1.80;;
47617;SDS011;33336;36.728;-4.414;2023-08-07T17:47:18;7.18;;;1.88;;
47617;SDS011;33336;36.728;-4.414;2023-08-07T17:52:22;8.65;;;2.58;;
47617;SDS011;33336;36.728;-4.414;2023-08-07T17:57:26;5.78;;;2.10;;
47617;SDS011;33336;36.728;-4.414;2023-08-07T18:02:29;12.68;;;2.42;;
47617;SDS011;33336;36.728;-4.414;2023-08-07T18:07:35;9.63;;;2.33;;
47617;SDS011;33336;36.728;-4.414;2023-08-07T18:12:38;9.20;;;2.17;;
47617;SDS011;33336;36.728;-4.414;2023-08-07T18:17:42;9.68;;;2.58;;
47617;SDS011;33336;36.728;-4.414;2023-08-07T18:22:46;7.70;;;1.63;;
47617;SDS011;33336;36.728;-4.414;2023-08-07T18:27:50;12.45;;;2.83;;
47617;SDS011;33336;36.728;-4.414;2023-08-07T18:32:53;6.23;;;2.07;;
47617;SDS011;33336;36.728;-4.414;2023-08-07T18:37:58;10.93;;;2.67;;
47617;SDS011;33336;36.728;-4.414;2023-08-07T18:43:00;8.18;;;2.22;;
47617;SDS011;33336;36.728;-4.414;2023-08-07T18:48:03;11.57;;;2.72;;
47617;SDS011;33336;36.728;-4.414;2023-08-07T18:53:08;9.00;;;2.53;;
47617;SDS011;33336;36.728;-4.414;2023-08-07T18:58:11;10.90;;;2.38;;
47617;SDS011;33336;36.728;-4.414;2023-08-07T19:03:14;9.77;;;2.60;;
47617;SDS011;33336;36.728;-4.414;2023-08-07T19:08:19;9.88;;;2.63;;
47617;SDS011;33336;36.728;-4.414;2023-08-07T19:13:21;10.73;;;2.70;;
47617;SDS011;33336;36.728;-4.414;2023-08-07T19:18:25;14.60;;;3.13;;
47617;SDS011;33336;36.728;-4.414;2023-08-07T19:23:29;7.43;;;2.17;;
47617;SDS011;33336;36.728;-4.414;2023-08-07T19:28:33;13.35;;;2.63;;
47617;SDS011;33336;36.728;-4.414;2023-08-07T19:33:36;12.95;;;2.97;;
47617;SDS011;33336;36.728;-4.414;2023-08-07T19:38:42;9.80;;;2.88;;
47617;SDS011;33336;36.728;-4.414;2023-08-07T19:43:44;15.25;;;3.13;;
47617;SDS011;33336;36.728;-4.414;2023-08-07T19:48:49;13.77;;;3.65;;
47617;SDS011;33336;36.728;-4.414;2023-08-07T19:53:54;13.70;;;3.13;;
47617;SDS011;33336;36.728;-4.414;2023-08-07T19:59:00;14.40;;;3.05;;
47617;SDS011;33336;36.728;-4.414;2023-08-07T20:04:03;13.82;;;3.85;;
47617;SDS011;33336;36.728;-4.414;2023-08-07T20:09:08;18.10;;;3.70;;
47617;SDS011;33336;36.728;-4.414;2023-08-07T20:14:10;13.90;;;3.33;;
47617;SDS011;33336;36.728;-4.414;2023-08-07T20:19:13;14.00;;;3.95;;
47617;SDS011;33336;36.728;-4.414;2023-08-07T20:24:18;19.05;;;4.18;;
47617;SDS011;33336;36.728;-4.414;2023-08-07T20:29:21;21.20;;;5.30;;
47617;SDS011;33336;36.728;-4.414;2023-08-07T20:34:24;13.68;;;3.38;;
47617;SDS011;33336;36.728;-4.414;2023-08-07T20:39:28;20.98;;;3.50;;
47617;SDS011;33336;36.728;-4.414;2023-08-07T20:44:31;15.88;;;3.42;;
47617;SDS011;33336;36.728;-4.414;2023-08-07T20:49:35;16.80;;;3.72;;
47617;SDS011;33336;36.728;-4.414;2023-08-07T20:54:39;20.58;;;3.90;;
47617;SDS011;33336;36.728;-4.414;2023-08-07T20:59:43;13.85;;;3.88;;
47617;SDS011;33336;36.728;-4.414;2023-08-07T21:04:46;17.80;;;4.35;;
47617;SDS011;33336;36.728;-4.414;2023-08-07T21:09:51;14.95;;;3.25;;
47617;SDS011;33336;36.728;-4.414;2023-08-07T21:14:53;10.32;;;3.30;;
47617;SDS011;33336;36.728;-4.414;2023-08-07T21:19:57;17.38;;;3.22;;
47617;SDS011;33336;36.728;-4.414;2023-08-07T21:25:01;16.33;;;3.60;;
47617;SDS011;33336;36.728;-4.414;2023-08-07T21:30:05;19.08;;;4.35;;
47617;SDS011;33336;36.728;-4.414;2023-08-07T21:35:09;20.23;;;4.93;;
47617;SDS011;33336;36.728;-4.414;2023-08-07T21:40:14;23.00;;;4.18;;
47617;SDS011;33336;36.728;-4.414;2023-08-07T21:45:16;24.15;;;4.55;;
47617;SDS011;33336;36.728;-4.414;2023-08-07T21:50:20;13.32;;;3.80;;
47617;SDS011;33336;36.728;-4.414;2023-08-07T21:55:24;23.98;;;5.10;;
47617;SDS011;33336;36.728;-4.414;2023-08-07T22:00:28;18.17;;;3.83;;
47617;SDS011;33336;36.728;-4.414;2023-08-07T22:05:31;18.35;;;4.00;;
47617;SDS011;33336;36.728;-4.414;2023-08-07T22:10:37;19.20;;;4.55;;
47617;SDS011;33336;36.728;-4.414;2023-08-07T22:15:40;23.70;;;5.50;;
47617;SDS011;33336;36.728;-4.414;2023-08-07T22:20:43;20.20;;;4.60;;
47617;SDS011;33336;36.728;-4.414;2023-08-07T22:25:47;17.42;;;4.45;;
47617;SDS011;33336;36.728;-4.414;2023-08-07T22:30:50;17.40;;;4.57;;
47617;SDS011;33336;36.728;-4.414;2023-08-07T22:35:53;18.77;;;5.30;;
47617;SDS011;33336;36.728;-4.414;2023-08-07T22:40:58;17.65;;;4.18;;
47617;SDS011;33336;36.728;-4.414;2023-08-07T22:46:00;18.08;;;4.63;;
47617;SDS011;33336;36.728;-4.414;2023-08-07T22:51:04;19.10;;;5.07;;
47617;SDS011;33336;36.728;-4.414;2023-08-07T22:56:09;19.63;;;4.70;;
47617;SDS011;33336;36.728;-4.414;2023-08-07T23:01:12;21.05;;;4.55;;
47617;SDS011;33336;36.728;-4.414;2023-08-07T23:06:15;16.88;;;3.75;;
47617;SDS011;33336;36.728;-4.414;2023-08-07T23:11:20;20.23;;;5.15;;
47617;SDS011;33336;36.728;-4.414;2023-08-07T23:16:22;21.15;;;4.60;;
47617;SDS011;33336;36.728;-4.414;2023-08-07T23:21:27;18.73;;;4.75;;
47617;SDS011;33336;36.728;-4.414;2023-08-07T23:26:31;15.55;;;4.07;;
47617;SDS011;33336;36.728;-4.414;2023-08-07T23:31:35;23.02;;;5.22;;
47617;SDS011;33336;36.728;-4.414;2023-08-07T23:36:38;18.70;;;4.50;;
47617;SDS011;33336;36.728;-4.414;2023-08-07T23:41:42;32.13;;;5.00;;
47617;SDS011;33336;36.728;-4.414;2023-08-07T23:46:45;19.63;;;4.57;;
47617;SDS011;33336;36.728;-4.414;2023-08-07T23:51:49;21.85;;;4.75;;
47617;SDS011;33336;36.728;-4.414;2023-08-07T23:56:53;23.88;;;5.57;;
